Time;durP1;ratioP1;P1;durP2;ratioP2;P2;SDS_P1;SDS_P2;PMS_P1;PMS_P2;Temp;Humidity;BMP_temperature;BMP_pressure;BME280_temperature;BME280_humidity;BME280_pressure;Samples;Min_cycle;Max_cycle;Signal;HPM_P1;HPM_P2
2024/03/24 00:01:52;;;;;;;7.40;2.20;;;;;;;2.80;100.00;100120.31;6173118;23;20803;-70
2024/03/24 00:04:18;;;;;;;6.47;2.15;;;;;;;2.77;100.00;100115.50;6148883;23;20009;-70
2024/03/24 00:06:44;;;;;;;8.38;2.40;;;;;;;2.75;100.00;100113.09;6124699;23;20148;-70
2024/03/24 00:09:12;;;;;;;4.63;1.95;;;;;;;2.75;100.00;100105.16;6147665;23;20056;-70
2024/03/24 00:11:41;;;;;;;5.82;2.55;;;;;;;2.76;100.00;100109.41;6173579;23;20013;-70
2024/03/24 00:14:07;;;;;;;4.75;2.00;;;;;;;2.72;100.00;100109.06;6123598;23;20417;-71
2024/03/24 00:16:32;;;;;;;5.82;1.80;;;;;;;2.75;100.00;100107.78;6148272;23;20658;-70
2024/03/24 00:18:59;;;;;;;5.95;2.15;;;;;;;2.76;100.00;100108.59;6147831;23;20021;-71
2024/03/24 00:21:24;;;;;;;;;;;;;;;2.76;100.00;100093.53;6149700;23;20088;-70
2024/03/24 00:23:50;;;;;;;6.32;2.45;;;;;;;2.74;100.00;100092.97;6122807;23;19966;-69
2024/03/24 00:26:16;;;;;;;5.95;2.00;;;;;;;2.76;100.00;100093.53;6174869;23;20012;-69
2024/03/24 00:28:41;;;;;;;5.20;2.38;;;;;;;2.78;100.00;100082.72;6146042;23;20035;-70
2024/03/24 00:31:07;;;;;;;4.35;2.20;;;;;;;2.77;100.00;100092.50;6174270;23;20020;-70
2024/03/24 00:33:32;;;;;;;5.97;2.30;;;;;;;2.74;100.00;100071.81;6123565;23;20013;-70
2024/03/24 00:36:00;;;;;;;6.07;1.83;;;;;;;2.77;100.00;100083.75;6147832;23;20021;-70
2024/03/24 00:38:26;;;;;;;7.43;2.47;;;;;;;2.75;100.00;100076.06;6123461;23;20009;-70
2024/03/24 00:40:51;;;;;;;5.28;2.50;;;;;;;2.73;100.00;100068.38;6175007;23;20016;-69
2024/03/24 00:43:17;;;;;;;4.45;2.10;;;;;;;2.77;100.00;100068.69;6148112;23;20354;-70
2024/03/24 00:45:43;;;;;;;6.35;2.92;;;;;;;2.79;100.00;100071.94;6097838;23;20013;-70
2024/03/24 00:48:08;;;;;;;4.78;2.15;;;;;;;2.80;100.00;100068.25;6148298;23;20356;-69
2024/03/24 00:50:34;;;;;;;8.10;2.50;;;;;;;2.82;100.00;100062.72;6149293;23;20359;-70
2024/03/24 00:53:00;;;;;;;4.60;2.65;;;;;;;2.84;100.00;100066.72;6173996;23;20607;-70
2024/03/24 00:55:26;;;;;;;4.25;2.20;;;;;;;2.85;100.00;100067.53;6146728;23;20005;-70
2024/03/24 00:57:52;;;;;;;5.95;2.20;;;;;;;2.85;100.00;100056.97;6147971;23;20013;-70
2024/03/24 01:00:18;;;;;;;;;;;;;;;2.83;100.00;100059.81;6148155;23;20063;-70
2024/03/24 01:02:50;;;;;;;5.10;2.80;;;;;;;2.85;100.00;100054.31;6147916;23;19978;-70
2024/03/24 01:05:16;;;;;;;7.63;2.80;;;;;;;2.84;100.00;100050.84;6148150;23;20091;-69
2024/03/24 01:07:42;;;;;;;4.43;2.35;;;;;;;2.86;100.00;100050.63;6147564;23;20098;-71
2024/03/24 01:10:08;;;;;;;7.30;2.65;;;;;;;2.86;100.00;100048.00;6117878;23;20028;-69
2024/03/24 01:12:33;;;;;;;5.53;2.28;;;;;;;2.86;100.00;100038.22;6140305;23;20017;-70
2024/03/24 01:14:59;;;;;;;7.15;2.72;;;;;;;2.85;100.00;100033.16;6139566;23;20464;-71
2024/03/24 01:17:31;;;;;;;4.90;2.65;;;;;;;2.86;100.00;100034.78;6114229;23;20080;-70
2024/03/24 01:19:57;;;;;;;5.63;3.10;;;;;;;2.82;100.00;100026.50;6139469;23;20025;-70
2024/03/24 01:22:22;;;;;;;6.63;2.83;;;;;;;2.83;100.00;100022.00;6115157;23;20014;-69
2024/03/24 01:24:48;;;;;;;8.75;3.55;;;;;;;2.84;100.00;100011.19;6115338;23;20088;-71
2024/03/24 01:27:14;;;;;;;8.10;3.67;;;;;;;2.84;100.00;100021.75;6140681;23;20021;-70
2024/03/24 01:29:40;;;;;;;5.47;2.67;;;;;;;2.82;100.00;100007.97;6089734;23;20017;-71
2024/03/24 01:32:06;;;;;;;8.50;3.40;;;;;;;2.83;100.00;100004.28;6115684;23;20028;-71
2024/03/24 01:34:35;;;;;;;7.05;3.20;;;;;;;2.88;100.00;100009.69;6115905;23;20024;-70
2024/03/24 01:37:02;;;;;;;6.38;3.22;;;;;;;2.89;100.00;100002.53;6115666;23;20526;-70
2024/03/24 01:39:27;;;;;;;5.55;2.80;;;;;;;2.87;100.00;100000.16;6116211;23;20044;-70
2024/03/24 01:41:53;;;;;;;8.65;3.10;;;;;;;2.89;100.00;100002.53;6140426;23;20010;-71
2024/03/24 01:44:19;;;;;;;7.82;3.38;;;;;;;2.89;100.00;99989.31;6092832;23;20013;-71
2024/03/24 01:46:44;;;;;;;7.53;3.47;;;;;;;2.92;100.00;99991.50;6140372;23;20028;-70
2024/03/24 01:49:11;;;;;;;6.70;3.88;;;;;;;2.93;100.00;99985.19;6115476;23;20060;-70
2024/03/24 01:51:36;;;;;;;6.90;3.80;;;;;;;2.94;100.00;99973.56;6140195;23;20045;-70
2024/03/24 01:54:02;;;;;;;7.82;4.10;;;;;;;2.94;100.00;99979.63;6114614;23;20076;-70
2024/03/24 01:56:29;;;;;;;8.73;4.32;;;;;;;2.95;100.00;99965.38;6116189;23;20478;-69
2024/03/24 01:58:54;;;;;;;11.93;5.13;;;;;;;2.96;100.00;99966.97;6114863;23;20025;-70
2024/03/24 02:01:20;;;;;;;7.00;3.78;;;;;;;2.98;100.00;99964.91;6142733;23;20373;-70
2024/03/24 02:03:46;;;;;;;10.00;4.88;;;;;;;2.98;100.00;99953.50;6139713;23;20451;-70
2024/03/24 02:06:12;;;;;;;8.02;4.47;;;;;;;3.03;100.00;99955.44;6144506;23;20009;-71
2024/03/24 02:08:37;;;;;;;9.98;4.10;;;;;;;3.05;100.00;99950.72;6142223;23;20040;-70
2024/03/24 02:11:03;;;;;;;7.85;4.28;;;;;;;3.07;100.00;99951.28;6138528;23;20022;-71
2024/03/24 02:13:29;;;;;;;9.07;4.03;;;;;;;3.08;100.00;99937.81;6142212;23;20017;-71
2024/03/24 02:15:55;;;;;;;7.45;4.85;;;;;;;3.09;100.00;99941.25;6117329;23;20049;-71
2024/03/24 02:18:22;;;;;;;7.15;4.03;;;;;;;3.11;100.00;99939.16;6141637;23;20017;-71
2024/03/24 02:20:48;;;;;;;7.47;4.57;;;;;;;3.11;100.00;99933.88;6141973;23;20105;-71
2024/03/24 02:23:14;;;;;;;9.68;3.80;;;;;;;3.15;100.00;99940.31;6117531;23;20099;-71
2024/03/24 02:25:39;;;;;;;6.13;4.22;;;;;;;3.15;100.00;99922.59;6117016;23;20009;-71
2024/03/24 02:28:05;;;;;;;7.80;4.13;;;;;;;3.18;100.00;99929.22;6140833;23;20569;-72
2024/03/24 02:30:31;;;;;;;8.07;4.13;;;;;;;3.20;100.00;99925.31;6116836;23;20024;-71
2024/03/24 02:32:57;;;;;;;7.60;4.18;;;;;;;3.22;100.00;99922.44;6116226;23;20474;-72
2024/03/24 02:35:25;;;;;;;6.82;4.43;;;;;;;3.23;100.00;99913.44;6143347;23;20092;-71
2024/03/24 02:37:51;;;;;;;9.75;4.18;;;;;;;3.26;100.00;99915.63;6141921;23;20014;-70
2024/03/24 02:40:17;;;;;;;12.05;5.43;;;;;;;3.25;100.00;99900.75;6116983;23;20017;-70
2024/03/24 02:42:42;;;;;;;6.57;4.07;;;;;;;3.31;100.00;99907.75;6140816;23;20336;-70
2024/03/24 02:45:10;;;;;;;8.60;5.25;;;;;;;3.31;100.00;99894.50;6116401;23;20013;-70
2024/03/24 02:47:36;;;;;;;6.20;3.80;;;;;;;3.31;100.00;99883.91;6117329;23;20022;-71
2024/03/24 02:50:01;;;;;;;9.32;4.43;;;;;;;3.35;100.00;99889.53;6142530;23;20100;-70
2024/03/24 02:52:27;;;;;;;7.55;4.05;;;;;;;3.35;100.00;99884.25;6165831;23;20071;-70
2024/03/24 02:54:52;;;;;;;10.60;5.65;;;;;;;3.35;100.00;99866.53;6114987;23;20765;-69
2024/03/24 02:57:18;;;;;;;7.75;4.32;;;;;;;3.36;100.00;99860.19;6143111;23;20013;-70
2024/03/24 02:59:44;;;;;;;8.65;4.00;;;;;;;3.36;100.00;99862.81;6143523;23;20014;-70
2024/03/24 03:02:10;;;;;;;9.52;4.40;;;;;;;3.41;100.00;99862.09;6141558;23;20807;-71
2024/03/24 03:04:36;;;;;;;7.47;4.25;;;;;;;3.44;100.00;99861.59;6116372;23;20029;-70
2024/03/24 03:07:02;;;;;;;7.80;5.10;;;;;;;3.48;100.00;99860.09;6140515;23;20776;-70
2024/03/24 03:09:28;;;;;;;9.75;4.90;;;;;;;3.48;100.00;99842.34;6147812;23;20040;-71
2024/03/24 03:11:53;;;;;;;8.73;5.07;;;;;;;3.51;100.00;99849.78;6145058;23;20017;-70
2024/03/24 03:14:20;;;;;;;9.55;5.05;;;;;;;3.55;100.00;99839.53;6145076;23;20016;-70
2024/03/24 03:16:45;;;;;;;8.75;4.10;;;;;;;3.56;100.00;99843.78;6170517;23;20040;-71
2024/03/24 03:19:11;;;;;;;9.70;5.03;;;;;;;3.56;100.00;99828.69;6120349;23;20104;-70
2024/03/24 03:21:37;;;;;;;8.23;4.47;;;;;;;3.55;100.00;99828.94;6145546;23;20896;-71
2024/03/24 03:24:03;;;;;;;8.30;5.38;;;;;;;3.53;100.00;99829.19;6146859;23;20009;-70
2024/03/24 03:26:29;;;;;;;11.38;4.50;;;;;;;3.52;100.00;99817.00;6124042;23;20193;-71
2024/03/24 03:28:55;;;;;;;9.73;5.18;;;;;;;3.50;100.00;99824.38;6124045;23;20163;-70
2024/03/24 03:31:20;;;;;;;8.63;5.07;;;;;;;3.49;100.00;99819.31;6150555;23;20020;-71
2024/03/24 03:33:46;;;;;;;10.05;5.97;;;;;;;3.47;100.00;99814.28;6147450;23;20028;-71
2024/03/24 03:36:11;;;;;;;9.82;5.30;;;;;;;3.44;100.00;99806.81;6175520;23;20017;-71
2024/03/24 03:38:37;;;;;;;12.38;5.85;;;;;;;3.44;100.00;99813.97;6147977;23;20012;-71
2024/03/24 03:41:05;;;;;;;9.35;5.65;;;;;;;3.43;100.00;99812.38;6147605;23;20095;-71
2024/03/24 03:43:31;;;;;;;9.55;5.53;;;;;;;3.42;100.00;99811.56;6175179;23;20060;-71
2024/03/24 03:45:57;;;;;;;9.05;5.57;;;;;;;3.42;100.00;99805.47;6173603;23;20028;-70
2024/03/24 03:48:22;;;;;;;11.00;5.10;;;;;;;3.42;100.00;99805.47;6124155;23;20115;-71
2024/03/24 03:50:48;;;;;;;10.00;5.93;;;;;;;3.38;100.00;99805.16;6149365;23;20016;-71
2024/03/24 03:53:21;;;;;;;8.85;6.10;;;;;;;3.41;100.00;99799.38;6123284;23;20132;-71
2024/03/24 03:55:51;;;;;;;9.25;6.15;;;;;;;3.41;100.00;99795.94;6175389;23;20064;-71
2024/03/24 03:58:20;;;;;;;11.10;6.53;;;;;;;3.40;100.00;99792.50;6099115;23;20090;-71
2024/03/24 04:00:48;;;;;;;11.18;6.32;;;;;;;3.40;100.00;99795.13;6149385;23;20454;-71
2024/03/24 04:03:14;;;;;;;9.10;6.70;;;;;;;3.41;100.00;99780.84;6147095;23;20021;-71
2024/03/24 04:05:40;;;;;;;10.35;6.28;;;;;;;3.44;100.00;99788.28;6149258;23;20328;-70
2024/03/24 04:08:07;;;;;;;14.60;7.75;;;;;;;3.44;100.00;99785.63;6147434;23;20052;-70
2024/03/24 04:10:36;;;;;;;13.68;7.72;;;;;;;3.44;100.00;99772.41;6149578;23;20013;-71
2024/03/24 04:13:03;;;;;;;15.45;8.68;;;;;;;3.46;100.00;99767.69;6148325;23;20344;-72
2024/03/24 04:15:29;;;;;;;13.90;8.43;;;;;;;3.44;100.00;99766.31;6148427;23;20017;-70
2024/03/24 04:17:54;;;;;;;12.80;8.40;;;;;;;3.43;100.00;99760.22;6147066;23;20354;-72
2024/03/24 04:20:20;;;;;;;13.88;8.57;;;;;;;3.44;100.00;99761.81;6148808;23;20339;-70
2024/03/24 04:22:46;;;;;;;14.77;9.23;;;;;;;3.45;100.00;99755.47;6148644;23;20021;-71
2024/03/24 04:25:12;;;;;;;15.88;10.05;;;;;;;3.47;100.00;99749.97;6147760;23;20123;-71
2024/03/24 04:27:38;;;;;;;13.15;8.85;;;;;;;3.45;100.00;99746.75;6175248;23;20435;-71
2024/03/24 04:30:04;;;;;;;13.20;9.63;;;;;;;3.47;100.00;99742.00;6123450;23;20020;-70
2024/03/24 04:32:30;;;;;;;16.13;10.50;;;;;;;3.47;100.00;99756.06;6148241;23;20021;-70
2024/03/24 04:34:56;;;;;;;;;;;;;;;3.47;100.00;99756.06;6174502;23;20017;-71
2024/03/24 04:37:22;;;;;;;15.05;10.32;;;;;;;3.47;100.00;99756.06;6123709;23;19978;-71
2024/03/24 04:39:48;;;;;;;15.77;10.00;;;;;;;3.49;100.00;99751.31;6124108;23;20017;-71
2024/03/24 04:42:13;;;;;;;17.23;9.82;;;;;;;3.51;100.00;99757.13;6123037;23;20019;-71
2024/03/24 04:44:39;;;;;;;15.27;9.82;;;;;;;3.53;100.00;99751.63;6174394;23;20402;-70
2024/03/24 04:47:04;;;;;;;13.20;9.93;;;;;;;3.59;100.00;99747.16;6123638;23;20411;-70
2024/03/24 04:49:30;;;;;;;15.32;10.35;;;;;;;3.60;100.00;99743.50;6174774;23;20068;-70
2024/03/24 04:51:57;;;;;;;15.77;11.02;;;;;;;3.62;100.00;99736.88;6123504;23;20044;-70
2024/03/24 04:54:22;;;;;;;14.98;10.27;;;;;;;3.64;100.00;99731.34;6123927;23;20071;-71
2024/03/24 04:56:48;;;;;;;15.18;9.73;;;;;;;3.65;100.00;99725.78;6123449;23;20440;-72
2024/03/24 04:59:14;;;;;;;15.45;10.05;;;;;;;3.66;100.00;99726.59;6096979;23;20021;-71
2024/03/24 05:01:40;;;;;;;15.32;11.32;;;;;;;3.70;100.00;99727.69;6124321;23;20017;-71
2024/03/24 05:04:05;;;;;;;14.15;11.43;;;;;;;3.72;100.00;99725.59;6122796;23;20778;-72
2024/03/24 05:06:31;;;;;;;15.30;10.10;;;;;;;3.73;100.00;99732.53;6124272;23;20104;-71
2024/03/24 05:08:58;;;;;;;14.93;10.77;;;;;;;3.77;100.00;99728.31;6148088;23;20024;-72
2024/03/24 05:11:25;;;;;;;16.10;10.40;;;;;;;3.77;100.00;99729.09;6148979;23;20040;-72
2024/03/24 05:13:51;;;;;;;15.65;11.48;;;;;;;3.80;100.00;99727.81;6122846;23;20511;-72
2024/03/24 05:16:17;;;;;;;18.73;12.45;;;;;;;3.82;100.00;99725.72;6148097;23;20710;-72
2024/03/24 05:18:43;;;;;;;15.32;10.00;;;;;;;3.84;100.00;99715.66;6146850;23;20024;-72
2024/03/24 05:21:08;;;;;;;17.58;12.13;;;;;;;3.86;100.00;99720.69;6099669;23;20021;-72
2024/03/24 05:23:34;;;;;;;16.27;11.35;;;;;;;3.87;100.00;99719.69;6147597;23;20036;-72
2024/03/24 05:26:00;;;;;;;14.95;10.95;;;;;;;3.89;100.00;99723.66;6122809;23;20019;-72
2024/03/24 05:28:26;;;;;;;;;;;;;;;3.90;100.00;99724.47;6123370;23;20191;-72
2024/03/24 05:30:52;;;;;;;15.07;11.13;;;;;;;3.90;100.00;99719.97;6149377;23;19944;-72
2024/03/24 05:33:19;;;;;;;14.40;10.05;;;;;;;3.93;100.00;99716.00;6122642;23;20462;-72
2024/03/24 05:35:45;;;;;;;13.85;9.98;;;;;;;3.95;100.00;99721.88;6148844;23;20297;-72
2024/03/24 05:38:11;;;;;;;;;;;;;;;3.95;100.00;99720.03;6174196;23;20017;-72
2024/03/24 05:40:40;;;;;;;16.30;10.30;;;;;;;3.97;100.00;99723.22;6176428;23;20416;-72
2024/03/24 05:43:06;;;;;;;12.32;9.40;;;;;;;3.98;100.00;99718.72;6100179;23;20041;-71
2024/03/24 05:45:36;;;;;;;13.07;9.77;;;;;;;3.99;100.00;99726.41;6148057;23;20117;-73
2024/03/24 05:48:02;;;;;;;13.35;10.10;;;;;;;4.00;100.00;99717.41;6170645;23;20020;-71
2024/03/24 05:50:28;;;;;;;;;;;;;;;4.01;100.00;99719.03;6126592;23;20407;-70
2024/03/24 05:52:53;;;;;;;16.88;10.73;;;;;;;4.02;100.00;99715.31;6125449;23;19912;-71
2024/03/24 05:55:19;;;;;;;14.85;10.82;;;;;;;4.03;100.00;99722.22;6124693;23;20467;-72
2024/03/24 05:57:46;;;;;;;14.38;10.88;;;;;;;4.02;100.00;99699.41;6176258;23;20017;-72
2024/03/24 06:00:12;;;;;;;14.20;10.77;;;;;;;4.03;100.00;99721.41;6149090;23;20095;-71
2024/03/24 06:02:40;;;;;;;15.27;9.63;;;;;;;4.03;100.00;99710.81;6125244;23;20112;-72
2024/03/24 06:05:07;;;;;;;12.35;9.73;;;;;;;4.04;100.00;99718.50;6124355;23;20052;-70
2024/03/24 06:07:33;;;;;;;12.77;9.88;;;;;;;4.01;100.00;99711.06;6174996;23;20033;-72
2024/03/24 06:09:59;;;;;;;12.93;8.93;;;;;;;4.04;100.00;99715.84;6148855;23;20024;-72
2024/03/24 06:12:27;;;;;;;11.10;8.30;;;;;;;4.04;100.00;99720.34;6125519;23;20048;-72
2024/03/24 06:14:54;;;;;;;10.07;8.63;;;;;;;4.04;100.00;99715.84;6126192;23;20046;-72
2024/03/24 06:17:19;;;;;;;10.50;8.18;;;;;;;4.04;100.00;99715.84;6148748;23;20017;-72
2024/03/24 06:19:46;;;;;;;11.48;7.30;;;;;;;4.05;100.00;99720.09;6150259;23;20354;-72
2024/03/24 06:22:11;;;;;;;11.57;8.80;;;;;;;4.06;100.00;99719.06;6148216;23;20027;-70
2024/03/24 06:24:37;;;;;;;11.07;7.32;;;;;;;4.08;100.00;99714.31;6176320;23;20060;-71
2024/03/24 06:27:03;;;;;;;10.60;8.63;;;;;;;4.10;100.00;99706.91;6124155;23;20017;-71
2024/03/24 06:29:29;;;;;;;13.38;7.60;;;;;;;4.12;100.00;99704.00;6176066;23;20027;-72
2024/03/24 06:31:54;;;;;;;10.15;6.90;;;;;;;4.15;100.00;99710.66;6176374;23;20394;-72
2024/03/24 06:34:20;;;;;;;9.07;7.20;;;;;;;4.12;100.00;99709.28;6175688;23;20023;-71
2024/03/24 06:36:46;;;;;;;9.57;6.40;;;;;;;4.14;100.00;99701.91;6149737;23;20541;-71
2024/03/24 06:39:11;;;;;;;7.47;6.10;;;;;;;4.16;100.00;99705.09;6123997;23;20017;-72
2024/03/24 06:41:42;;;;;;;7.85;5.68;;;;;;;4.17;100.00;99704.03;6150202;23;20017;-72
2024/03/24 06:44:16;;;;;;;8.35;5.43;;;;;;;4.17;100.00;99704.03;6147819;23;20394;-71
2024/03/24 06:46:44;;;;;;;6.85;5.80;;;;;;;4.15;100.00;99708.00;6148683;23;20024;-70
2024/03/24 06:49:10;;;;;;;7.18;5.53;;;;;;;4.17;100.00;99712.00;6148429;23;20021;-71
2024/03/24 06:51:36;;;;;;;;;;;;;;;4.16;100.00;99709.59;6176565;23;20019;-71
2024/03/24 06:54:03;;;;;;;6.43;5.38;;;;;;;4.17;100.00;99712.00;6148811;23;19912;-70
2024/03/24 06:56:29;;;;;;;6.88;5.13;;;;;;;4.16;100.00;99714.91;6124705;23;20085;-71
2024/03/24 06:58:54;;;;;;;6.32;4.90;;;;;;;4.11;100.00;99708.50;6148912;23;20351;-71
2024/03/24 07:01:20;;;;;;;6.70;5.72;;;;;;;4.13;100.00;99705.59;6100031;23;20021;-71
2024/03/24 07:03:46;;;;;;;6.53;4.57;;;;;;;4.08;100.00;99706.38;6148333;23;20012;-71
2024/03/24 07:06:13;;;;;;;5.82;4.88;;;;;;;4.09;100.00;99713.25;6149386;23;20013;-71
2024/03/24 07:08:39;;;;;;;6.00;4.65;;;;;;;4.08;100.00;99703.72;6099877;23;20017;-69
2024/03/24 07:11:05;;;;;;;6.20;4.50;;;;;;;4.09;100.00;99715.91;6124438;23;20016;-70
2024/03/24 07:13:31;;;;;;;4.75;4.10;;;;;;;4.08;100.00;99698.41;6149131;23;20013;-71
2024/03/24 07:15:56;;;;;;;5.47;4.50;;;;;;;4.08;100.00;99709.00;6124883;23;20107;-70
2024/03/24 07:18:22;;;;;;;5.47;4.28;;;;;;;4.08;100.00;99708.22;6147359;23;20016;-71
2024/03/24 07:20:56;;;;;;;4.68;4.07;;;;;;;4.10;100.00;99709.56;6173877;23;20013;-72
2024/03/24 07:23:22;;;;;;;4.25;3.85;;;;;;;4.11;100.00;99705.84;6123336;23;20075;-69
2024/03/24 07:25:47;;;;;;;4.07;3.50;;;;;;;4.09;100.00;99710.59;6175267;23;20013;-70
2024/03/24 07:28:13;;;;;;;6.47;4.20;;;;;;;4.17;100.00;99708.53;6173027;23;20021;-72
2024/03/24 07:30:38;;;;;;;5.20;3.63;;;;;;;4.15;100.00;99708.81;6149572;23;20052;-69
2024/03/24 07:33:04;;;;;;;4.78;4.05;;;;;;;4.21;100.00;99718.41;6148184;23;20017;-71
2024/03/24 07:35:30;;;;;;;4.97;4.22;;;;;;;4.24;100.00;99712.59;6124007;23;20021;-70
2024/03/24 07:37:55;;;;;;;6.15;3.78;;;;;;;4.23;100.00;99713.63;6147732;23;20087;-70
2024/03/24 07:40:22;;;;;;;5.53;4.32;;;;;;;4.29;100.00;99709.19;6123436;23;20032;-72
2024/03/24 07:42:48;;;;;;;5.57;4.05;;;;;;;4.34;100.00;99711.88;6149455;23;20023;-70
2024/03/24 07:45:13;;;;;;;6.53;4.60;;;;;;;4.37;100.00;99700.75;6124092;23;20017;-71
2024/03/24 07:47:39;;;;;;;6.47;4.30;;;;;;;4.45;100.00;99713.53;6148838;23;20067;-71
2024/03/24 07:50:06;;;;;;;6.00;4.97;;;;;;;4.50;100.00;99700.31;6099162;23;20021;-72
2024/03/24 07:52:32;;;;;;;5.68;3.78;;;;;;;4.65;100.00;99707.56;6100425;23;20041;-71
2024/03/24 07:54:58;;;;;;;5.93;4.00;;;;;;;4.75;100.00;99701.56;6148542;23;20075;-71
2024/03/24 07:57:23;;;;;;;4.40;3.85;;;;;;;4.76;100.00;99703.16;6148385;23;20095;-71
2024/03/24 07:59:49;;;;;;;6.82;4.20;;;;;;;4.79;100.00;99702.63;6148804;23;20355;-70
2024/03/24 08:02:15;;;;;;;7.05;4.65;;;;;;;4.82;100.00;99707.44;6147370;23;20048;-70
2024/03/24 08:04:41;;;;;;;7.45;3.97;;;;;;;4.94;100.00;99708.00;6149500;23;20424;-72
2024/03/24 08:07:07;;;;;;;5.68;4.53;;;;;;;5.03;100.00;99708.34;6147960;23;20479;-73
2024/03/24 08:09:33;;;;;;;5.40;3.75;;;;;;;5.08;100.00;99706.50;6124300;23;20100;-71
2024/03/24 08:11:58;;;;;;;6.72;4.57;;;;;;;5.07;100.00;99702.25;6175457;23;20100;-71
2024/03/24 08:14:24;;;;;;;6.00;4.55;;;;;;;5.12;100.00;99704.13;6174905;23;20362;-70
2024/03/24 08:16:50;;;;;;;8.48;4.63;;;;;;;5.18;100.00;99706.53;6173938;23;20400;-70
2024/03/24 08:19:15;;;;;;;7.53;5.13;;;;;;;5.24;100.00;99703.91;6122760;23;20021;-70
2024/03/24 08:21:43;;;;;;;8.25;5.43;;;;;;;5.25;100.00;99695.69;6125267;23;20051;-69
2024/03/24 08:24:09;;;;;;;8.05;5.22;;;;;;;5.34;100.00;99693.31;6122602;23;20693;-70
2024/03/24 08:26:34;;;;;;;6.03;4.90;;;;;;;5.40;100.00;99692.28;6175199;23;20541;-70
2024/03/24 08:29:00;;;;;;;7.65;4.40;;;;;;;5.48;100.00;99697.09;6174778;23;20351;-71
2024/03/24 08:31:26;;;;;;;6.80;5.45;;;;;;;5.53;100.00;99697.09;6148285;23;20017;-71
2024/03/24 08:33:51;;;;;;;6.18;4.32;;;;;;;5.71;100.00;99709.91;6123242;23;20013;-70
2024/03/24 08:36:17;;;;;;;7.15;5.50;;;;;;;5.65;100.00;99700.34;6174739;23;20060;-70
2024/03/24 08:38:43;;;;;;;7.03;5.25;;;;;;;5.66;100.00;99715.22;6147861;23;20017;-70
2024/03/24 08:41:12;;;;;;;10.40;5.63;;;;;;;5.67;100.00;99710.69;6148113;23;20089;-70
2024/03/24 08:43:38;;;;;;;8.05;5.90;;;;;;;5.68;100.00;99709.63;6148255;23;20016;-70
2024/03/24 08:46:04;;;;;;;9.48;5.65;;;;;;;5.79;100.00;99705.16;6148364;23;20009;-71
2024/03/24 08:48:29;;;;;;;7.50;5.53;;;;;;;5.85;100.00;99704.09;6098785;23;20366;-70
2024/03/24 08:50:55;;;;;;;7.50;4.72;;;;;;;5.87;100.00;99699.31;6148816;23;20025;-71
2024/03/24 08:53:21;;;;;;;8.38;6.03;;;;;;;5.93;100.00;99700.94;6147396;23;20021;-69
2024/03/24 08:55:46;;;;;;;9.38;5.32;;;;;;;5.90;100.00;99696.94;6124232;23;20510;-70
2024/03/24 08:58:12;;;;;;;9.75;5.80;;;;;;;5.87;100.00;99694.00;6122872;23;20035;-70
2024/03/24 09:00:37;;;;;;;6.80;5.03;;;;;;;5.83;100.00;99692.94;6175023;23;20336;-72
2024/03/24 09:03:04;;;;;;;7.28;5.43;;;;;;;5.92;100.00;99688.72;6123815;23;20017;-71
2024/03/24 09:05:29;;;;;;;6.53;5.15;;;;;;;5.99;100.00;99699.88;6123335;23;20013;-71
2024/03/24 09:07:55;;;;;;;6.93;4.40;;;;;;;6.01;100.00;99695.09;6123743;23;20701;-71
2024/03/24 09:10:21;;;;;;;6.20;4.55;;;;;;;5.98;100.00;99692.97;6148107;23;20706;-71
2024/03/24 09:12:48;;;;;;;5.82;4.72;;;;;;;5.96;100.00;99689.78;6124201;23;20009;-71
2024/03/24 09:15:15;;;;;;;7.97;4.40;;;;;;;6.00;100.00;99693.50;6100102;23;20012;-71
2024/03/24 09:17:40;;;;;;;7.65;3.90;;;;;;;6.07;100.00;99682.63;6101128;23;20047;-72
2024/03/24 09:20:08;;;;;;;7.68;4.28;;;;;;;6.11;100.00;99687.16;6150295;23;20103;-71
2024/03/24 09:22:35;;;;;;;4.72;3.15;;;;;;;6.14;100.00;99681.28;6150060;23;20217;-70
2024/03/24 09:25:01;;;;;;;5.70;3.50;;;;;;;6.13;100.00;99678.91;6150815;23;20354;-71
2024/03/24 09:27:26;;;;;;;5.63;3.35;;;;;;;6.11;100.00;99683.69;6149415;23;20028;-71
2024/03/24 09:29:52;;;;;;;6.20;3.30;;;;;;;6.20;100.00;99685.53;6150768;23;20114;-71
2024/03/24 09:32:19;;;;;;;6.65;4.30;;;;;;;6.30;100.00;99676.78;6149048;23;20009;-70
2024/03/24 09:34:45;;;;;;;5.03;3.60;;;;;;;6.32;100.00;99671.97;6176946;23;20067;-71
2024/03/24 09:37:12;;;;;;;7.72;4.38;;;;;;;6.29;100.00;99673.28;6149803;23;20682;-70
2024/03/24 09:39:38;;;;;;;5.22;3.70;;;;;;;6.24;100.00;99675.97;6149397;23;20443;-70
2024/03/24 09:42:04;;;;;;;6.07;4.00;;;;;;;6.22;100.00;99671.97;6172782;23;20024;-70
2024/03/24 09:44:30;;;;;;;8.70;4.13;;;;;;;6.22;100.00;99666.66;6148096;23;20032;-71
2024/03/24 09:46:59;;;;;;;7.00;3.97;;;;;;;6.27;100.00;99666.66;6124398;23;20439;-72
2024/03/24 09:49:26;;;;;;;7.55;4.32;;;;;;;6.29;100.00;99675.94;6146750;23;20036;-72
2024/03/24 09:51:53;;;;;;;4.45;2.60;;;;;;;6.25;100.00;99664.28;6149747;23;20020;-70
2024/03/24 09:54:19;;;;;;;3.95;3.08;;;;;;;6.31;100.00;99661.63;6148898;23;20019;-71
2024/03/24 09:56:45;;;;;;;3.45;2.42;;;;;;;6.25;100.00;99671.47;6150168;23;20079;-71
2024/03/24 09:59:12;;;;;;;6.68;3.13;;;;;;;6.29;100.00;99662.66;6149881;23;20013;-72
2024/03/24 10:01:38;;;;;;;;;;;;;;;6.31;100.00;99653.66;6149622;23;20019;-70
2024/03/24 10:04:06;;;;;;;4.35;3.33;;;;;;;6.24;100.00;99660.03;6147879;23;19994;-71
2024/03/24 10:06:33;;;;;;;7.13;3.17;;;;;;;6.26;100.00;99665.06;6123029;23;20019;-71
2024/03/24 10:09:00;;;;;;;3.92;2.80;;;;;;;6.26;100.00;99655.22;6149840;23;20469;-71
2024/03/24 10:11:30;;;;;;;;;;;;;;;6.31;100.00;99653.66;6124415;23;20017;-71
2024/03/24 10:14:00;;;;;;;4.32;2.80;;;;;;;6.27;100.00;99662.13;6175946;23;19912;-71
2024/03/24 10:16:26;;;;;;;5.90;3.70;;;;;;;6.28;100.00;99660.28;6148574;23;20016;-70
2024/03/24 10:18:52;;;;;;;5.15;3.53;;;;;;;6.32;100.00;99655.25;6172835;23;20074;-70
2024/03/24 10:21:18;;;;;;;;;;;;;;;6.40;100.00;99658.16;6176094;23;20013;-70
2024/03/24 10:23:44;;;;;;;3.25;2.70;;;;;;;6.50;100.00;99659.97;6123882;23;19908;-71
2024/03/24 10:26:16;;;;;;;4.10;2.53;;;;;;;6.60;100.00;99659.19;6175398;23;20016;-70
2024/03/24 10:28:42;;;;;;;3.80;2.10;;;;;;;6.70;100.00;99657.28;6124948;23;20036;-70
2024/03/24 10:31:09;;;;;;;4.03;2.33;;;;;;;6.71;100.00;99653.56;6149292;23;20086;-71
2024/03/24 10:33:36;;;;;;;4.63;2.42;;;;;;;6.81;100.00;99658.06;6123454;23;20027;-71
2024/03/24 10:36:08;;;;;;;4.35;2.05;;;;;;;6.94;100.00;99654.81;6149209;23;20060;-71
2024/03/24 10:38:36;;;;;;;4.53;1.92;;;;;;;7.01;100.00;99646.53;6123609;23;20017;-71
2024/03/24 10:41:03;;;;;;;3.70;1.35;;;;;;;7.05;100.00;99647.59;6149993;23;20463;-70
2024/03/24 10:43:30;;;;;;;3.67;2.35;;;;;;;7.03;100.00;99647.06;6123627;23;20560;-70
2024/03/24 10:45:56;;;;;;;5.15;2.10;;;;;;;6.98;100.00;99639.13;6176109;23;20097;-70
2024/03/24 10:48:32;;;;;;;3.10;1.73;;;;;;;7.03;100.00;99649.72;6174623;23;20023;-71
2024/03/24 10:51:00;;;;;;;5.85;1.88;;;;;;;7.08;100.00;99649.72;6124795;23;20028;-71
2024/03/24 10:53:28;;;;;;;3.05;1.60;;;;;;;6.94;100.00;99640.72;6122817;23;20017;-71
2024/03/24 10:55:58;;;;;;;3.17;1.60;;;;;;;6.79;100.00;99644.22;6175937;23;20474;-71
2024/03/24 10:58:24;;;;;;;2.78;1.55;;;;;;;6.77;100.00;99641.84;6122720;23;20058;-71
2024/03/24 11:00:50;;;;;;;;;;;;;;;6.81;100.00;99645.53;6150092;23;20021;-70
2024/03/24 11:03:17;;;;;;;4.10;2.28;;;;;;;6.77;100.00;99641.84;6100366;23;19927;-70
2024/03/24 11:05:47;;;;;;;3.88;2.38;;;;;;;6.78;100.00;99638.13;6123459;23;20017;-70
2024/03/24 11:08:15;;;;;;;4.75;2.58;;;;;;;6.91;100.00;99638.59;6123958;23;20019;-71
2024/03/24 11:10:46;;;;;;;6.13;2.75;;;;;;;7.01;100.00;99636.69;6124033;23;20040;-71
2024/03/24 11:13:18;;;;;;;4.85;2.78;;;;;;;7.10;100.00;99639.56;6123041;23;20309;-70
2024/03/24 11:15:48;;;;;;;4.90;2.70;;;;;;;7.21;100.00;99630.47;6123797;23;20482;-71
2024/03/24 11:18:24;;;;;;;4.47;3.15;;;;;;;7.15;100.00;99630.78;6148716;23;20736;-70
2024/03/24 11:20:55;;;;;;;4.75;3.00;;;;;;;7.16;100.00;99627.84;6125428;23;20112;-71
2024/03/24 11:23:23;;;;;;;4.35;2.80;;;;;;;7.13;100.00;99624.94;6122758;23;20462;-70
2024/03/24 11:25:50;;;;;;;2.95;2.17;;;;;;;7.14;100.00;99618.53;6124669;23;20020;-71
2024/03/24 11:28:41;;;;;;;3.55;2.25;;;;;;;7.23;100.00;99620.34;6123921;23;20045;-72